sensor_id;sensor_type;location;lat;lon;timestamp;temperature;humidity
41944;DHT22;27636;52.610;13.244;2023-07-29T00:03:39;16.40;99.90
41944;DHT22;27636;52.610;13.244;2023-07-29T00:08:45;16.30;99.90
41944;DHT22;27636;52.610;13.244;2023-07-29T00:13:49;16.20;99.90
41944;DHT22;27636;52.610;13.244;2023-07-29T00:18:54;16.10;99.90
41944;DHT22;27636;52.610;13.244;2023-07-29T00:23:59;16.10;99.90
41944;DHT22;27636;52.610;13.244;2023-07-29T00:29:04;16.00;99.90
41944;DHT22;27636;52.610;13.244;2023-07-29T00:34:08;16.00;99.90
41944;DHT22;27636;52.610;13.244;2023-07-29T00:39:13;15.90;99.90
41944;DHT22;27636;52.610;13.244;2023-07-29T00:44:17;15.90;99.90
41944;DHT22;27636;52.610;13.244;2023-07-29T00:49:21;15.80;99.90
41944;DHT22;27636;52.610;13.244;2023-07-29T00:54:26;15.70;99.90
41944;DHT22;27636;52.610;13.244;2023-07-29T00:59:30;15.70;99.90
41944;DHT22;27636;52.610;13.244;2023-07-29T01:04:35;15.70;99.90
41944;DHT22;27636;52.610;13.244;2023-07-29T01:09:45;15.70;99.90
41944;DHT22;27636;52.610;13.244;2023-07-29T01:14:55;15.60;99.90
41944;DHT22;27636;52.610;13.244;2023-07-29T01:20:01;15.60;99.90
41944;DHT22;27636;52.610;13.244;2023-07-29T01:25:16;15.70;99.90
41944;DHT22;27636;52.610;13.244;2023-07-29T01:30:20;15.60;99.90
41944;DHT22;27636;52.610;13.244;2023-07-29T01:35:31;15.60;99.90
41944;DHT22;27636;52.610;13.244;2023-07-29T01:40:36;15.50;99.90
41944;DHT22;27636;52.610;13.244;2023-07-29T01:45:40;15.50;99.90
41944;DHT22;27636;52.610;13.244;2023-07-29T01:50:44;15.40;99.90
41944;DHT22;27636;52.610;13.244;2023-07-29T01:55:49;15.40;99.90
41944;DHT22;27636;52.610;13.244;2023-07-29T02:00:53;15.40;99.90
41944;DHT22;27636;52.610;13.244;2023-07-29T02:05:57;15.50;99.90
41944;DHT22;27636;52.610;13.244;2023-07-29T02:11:02;15.40;99.90
41944;DHT22;27636;52.610;13.244;2023-07-29T02:16:05;15.30;99.90
41944;DHT22;27636;52.610;13.244;2023-07-29T02:21:09;15.30;99.90
41944;DHT22;27636;52.610;13.244;2023-07-29T02:26:14;15.30;99.90
41944;DHT22;27636;52.610;13.244;2023-07-29T02:31:20;15.30;99.90
41944;DHT22;27636;52.610;13.244;2023-07-29T02:36:24;15.30;99.90
41944;DHT22;27636;52.610;13.244;2023-07-29T02:41:29;15.30;99.90
41944;DHT22;27636;52.610;13.244;2023-07-29T02:46:32;15.40;99.90
41944;DHT22;27636;52.610;13.244;2023-07-29T02:51:36;15.30;99.90
41944;DHT22;27636;52.610;13.244;2023-07-29T02:56:41;15.30;99.90
41944;DHT22;27636;52.610;13.244;2023-07-29T03:01:45;15.20;99.90
41944;DHT22;27636;52.610;13.244;2023-07-29T03:06:49;15.20;99.90
41944;DHT22;27636;52.610;13.244;2023-07-29T03:11:54;15.20;99.90
41944;DHT22;27636;52.610;13.244;2023-07-29T03:17:02;15.20;99.90
41944;DHT22;27636;52.610;13.244;2023-07-29T03:22:06;15.20;99.90
41944;DHT22;27636;52.610;13.244;2023-07-29T03:27:11;15.20;99.90
41944;DHT22;27636;52.610;13.244;2023-07-29T03:32:16;15.20;99.90
41944;DHT22;27636;52.610;13.244;2023-07-29T03:37:20;15.30;99.90
41944;DHT22;27636;52.610;13.244;2023-07-29T03:42:25;15.20;99.90
41944;DHT22;27636;52.610;13.244;2023-07-29T03:47:29;15.20;99.90
41944;DHT22;27636;52.610;13.244;2023-07-29T03:52:34;15.20;99.90
41944;DHT22;27636;52.610;13.244;2023-07-29T03:57:40;15.30;99.90
41944;DHT22;27636;52.610;13.244;2023-07-29T04:02:43;15.40;99.90
41944;DHT22;27636;52.610;13.244;2023-07-29T04:07:49;15.40;99.90
41944;DHT22;27636;52.610;13.244;2023-07-29T04:12:54;15.50;99.90
41944;DHT22;27636;52.610;13.244;2023-07-29T04:17:58;15.60;99.90
41944;DHT22;27636;52.610;13.244;2023-07-29T04:23:02;15.80;99.90
41944;DHT22;27636;52.610;13.244;2023-07-29T04:28:07;15.90;99.90
41944;DHT22;27636;52.610;13.244;2023-07-29T04:33:10;16.10;99.90
41944;DHT22;27636;52.610;13.244;2023-07-29T04:38:15;16.30;99.90
41944;DHT22;27636;52.610;13.244;2023-07-29T04:43:19;16.70;99.90
41944;DHT22;27636;52.610;13.244;2023-07-29T04:48:23;17.00;99.90
41944;DHT22;27636;52.610;13.244;2023-07-29T04:53:27;17.10;99.90
41944;DHT22;27636;52.610;13.244;2023-07-29T04:58:32;17.50;99.90
41944;DHT22;27636;52.610;13.244;2023-07-29T05:03:39;17.90;99.90
41944;DHT22;27636;52.610;13.244;2023-07-29T05:08:43;18.40;99.90
41944;DHT22;27636;52.610;13.244;2023-07-29T05:13:49;18.60;99.90
41944;DHT22;27636;52.610;13.244;2023-07-29T05:18:52;19.80;99.90
41944;DHT22;27636;52.610;13.244;2023-07-29T05:23:56;21.60;99.90
41944;DHT22;27636;52.610;13.244;2023-07-29T05:29:01;23.10;99.90
41944;DHT22;27636;52.610;13.244;2023-07-29T05:34:04;24.20;99.90
41944;DHT22;27636;52.610;13.244;2023-07-29T05:39:08;25.30;99.90
41944;DHT22;27636;52.610;13.244;2023-07-29T05:44:13;24.10;99.90
41944;DHT22;27636;52.610;13.244;2023-07-29T05:49:17;23.40;99.90
41944;DHT22;27636;52.610;13.244;2023-07-29T05:54:20;24.30;99.90
41944;DHT22;27636;52.610;13.244;2023-07-29T05:59:26;25.40;99.90
41944;DHT22;27636;52.610;13.244;2023-07-29T06:04:34;26.30;99.90
41944;DHT22;27636;52.610;13.244;2023-07-29T06:09:39;27.60;99.90
41944;DHT22;27636;52.610;13.244;2023-07-29T06:14:44;27.90;99.90
41944;DHT22;27636;52.610;13.244;2023-07-29T06:19:48;28.30;97.50
41944;DHT22;27636;52.610;13.244;2023-07-29T06:24:52;27.80;95.90
41944;DHT22;27636;52.610;13.244;2023-07-29T06:29:57;28.10;95.40
41944;DHT22;27636;52.610;13.244;2023-07-29T06:35:01;28.70;95.90
41944;DHT22;27636;52.610;13.244;2023-07-29T06:40:05;29.90;91.80
41944;DHT22;27636;52.610;13.244;2023-07-29T06:45:10;30.00;91.70
41944;DHT22;27636;52.610;13.244;2023-07-29T06:50:14;30.30;91.50
41944;DHT22;27636;52.610;13.244;2023-07-29T06:55:17;30.70;89.60
41944;DHT22;27636;52.610;13.244;2023-07-29T07:00:22;30.00;89.90
41944;DHT22;27636;52.610;13.244;2023-07-29T07:05:27;28.60;92.10
41944;DHT22;27636;52.610;13.244;2023-07-29T07:10:30;28.20;93.20
41944;DHT22;27636;52.610;13.244;2023-07-29T07:15:36;26.70;96.10
41944;DHT22;27636;52.610;13.244;2023-07-29T07:20:40;25.90;99.90
41944;DHT22;27636;52.610;13.244;2023-07-29T07:25:44;26.00;99.40
41944;DHT22;27636;52.610;13.244;2023-07-29T07:30:48;25.70;99.90
41944;DHT22;27636;52.610;13.244;2023-07-29T07:35:52;25.30;99.90
41944;DHT22;27636;52.610;13.244;2023-07-29T07:40:56;25.50;99.90
41944;DHT22;27636;52.610;13.244;2023-07-29T07:46:03;25.90;99.90
41944;DHT22;27636;52.610;13.244;2023-07-29T07:51:10;28.10;96.90
41944;DHT22;27636;52.610;13.244;2023-07-29T07:56:14;28.90;97.40
41944;DHT22;27636;52.610;13.244;2023-07-29T08:01:20;29.80;92.10
41944;DHT22;27636;52.610;13.244;2023-07-29T08:06:24;29.50;92.00
41944;DHT22;27636;52.610;13.244;2023-07-29T08:11:28;28.20;92.80
41944;DHT22;27636;52.610;13.244;2023-07-29T08:16:33;28.90;92.70
41944;DHT22;27636;52.610;13.244;2023-07-29T08:21:37;27.80;95.30
41944;DHT22;27636;52.610;13.244;2023-07-29T08:26:40;27.60;96.00
41944;DHT22;27636;52.610;13.244;2023-07-29T08:31:45;27.90;98.10
41944;DHT22;27636;52.610;13.244;2023-07-29T08:36:49;27.80;95.20
41944;DHT22;27636;52.610;13.244;2023-07-29T08:41:59;28.00;96.70
41944;DHT22;27636;52.610;13.244;2023-07-29T08:47:05;28.30;94.80
41944;DHT22;27636;52.610;13.244;2023-07-29T08:52:09;27.40;95.80
41944;DHT22;27636;52.610;13.244;2023-07-29T08:57:14;27.30;94.90
41944;DHT22;27636;52.610;13.244;2023-07-29T09:02:20;27.00;96.30
41944;DHT22;27636;52.610;13.244;2023-07-29T09:07:24;26.80;96.90
41944;DHT22;27636;52.610;13.244;2023-07-29T09:12:28;26.30;98.90
41944;DHT22;27636;52.610;13.244;2023-07-29T09:17:33;26.20;98.70
41944;DHT22;27636;52.610;13.244;2023-07-29T09:22:36;26.00;99.10
41944;DHT22;27636;52.610;13.244;2023-07-29T09:27:40;26.30;99.90
41944;DHT22;27636;52.610;13.244;2023-07-29T09:32:44;27.00;99.90
41944;DHT22;27636;52.610;13.244;2023-07-29T09:37:48;27.60;96.80
41944;DHT22;27636;52.610;13.244;2023-07-29T09:42:54;27.90;96.00
41944;DHT22;27636;52.610;13.244;2023-07-29T09:48:00;26.90;98.10
41944;DHT22;27636;52.610;13.244;2023-07-29T09:53:03;26.40;99.20
41944;DHT22;27636;52.610;13.244;2023-07-29T09:58:07;26.10;99.80
41944;DHT22;27636;52.610;13.244;2023-07-29T10:03:14;26.70;98.70
41944;DHT22;27636;52.610;13.244;2023-07-29T10:08:18;27.20;98.20
41944;DHT22;27636;52.610;13.244;2023-07-29T10:13:22;26.70;96.90
41944;DHT22;27636;52.610;13.244;2023-07-29T10:18:28;26.70;99.90
41944;DHT22;27636;52.610;13.244;2023-07-29T10:23:37;26.20;99.90
41944;DHT22;27636;52.610;13.244;2023-07-29T10:28:47;25.50;99.90
41944;DHT22;27636;52.610;13.244;2023-07-29T10:33:52;25.00;99.90
41944;DHT22;27636;52.610;13.244;2023-07-29T10:38:56;24.20;99.90
41944;DHT22;27636;52.610;13.244;2023-07-29T10:43:59;23.60;99.90
41944;DHT22;27636;52.610;13.244;2023-07-29T10:49:04;22.60;99.90
41944;DHT22;27636;52.610;13.244;2023-07-29T10:54:11;20.90;99.90
41944;DHT22;27636;52.610;13.244;2023-07-29T10:59:33;19.90;99.90
41944;DHT22;27636;52.610;13.244;2023-07-29T11:04:47;19.60;99.90
41944;DHT22;27636;52.610;13.244;2023-07-29T11:09:55;19.70;99.90
41944;DHT22;27636;52.610;13.244;2023-07-29T11:15:04;19.70;99.90
41944;DHT22;27636;52.610;13.244;2023-07-29T11:27:13;19.30;99.90
41944;DHT22;27636;52.610;13.244;2023-07-29T11:32:17;19.40;99.90
41944;DHT22;27636;52.610;13.244;2023-07-29T11:37:21;19.60;99.90
41944;DHT22;27636;52.610;13.244;2023-07-29T11:42:26;19.60;99.90
41944;DHT22;27636;52.610;13.244;2023-07-29T11:47:32;20.10;99.90
41944;DHT22;27636;52.610;13.244;2023-07-29T11:52:43;20.20;99.90
41944;DHT22;27636;52.610;13.244;2023-07-29T11:57:49;20.40;99.90
41944;DHT22;27636;52.610;13.244;2023-07-29T12:02:54;20.90;99.90
41944;DHT22;27636;52.610;13.244;2023-07-29T12:07:59;21.00;99.90
41944;DHT22;27636;52.610;13.244;2023-07-29T12:13:04;21.20;99.90
41944;DHT22;27636;52.610;13.244;2023-07-29T12:18:08;21.30;99.90
41944;DHT22;27636;52.610;13.244;2023-07-29T12:23:12;21.40;99.90
41944;DHT22;27636;52.610;13.244;2023-07-29T12:28:17;21.50;99.90
41944;DHT22;27636;52.610;13.244;2023-07-29T12:33:31;21.30;99.90
41944;DHT22;27636;52.610;13.244;2023-07-29T12:38:35;21.70;99.90
41944;DHT22;27636;52.610;13.244;2023-07-29T12:43:40;22.30;99.90
41944;DHT22;27636;52.610;13.244;2023-07-29T12:48:43;22.80;99.90
41944;DHT22;27636;52.610;13.244;2023-07-29T12:53:47;23.30;99.90
41944;DHT22;27636;52.610;13.244;2023-07-29T12:58:52;24.20;99.90
41944;DHT22;27636;52.610;13.244;2023-07-29T13:03:55;24.90;99.90
41944;DHT22;27636;52.610;13.244;2023-07-29T13:08:59;24.50;99.90
41944;DHT22;27636;52.610;13.244;2023-07-29T13:14:04;24.30;99.90
41944;DHT22;27636;52.610;13.244;2023-07-29T13:19:08;23.90;99.90
41944;DHT22;27636;52.610;13.244;2023-07-29T13:24:12;23.80;99.90
41944;DHT22;27636;52.610;13.244;2023-07-29T13:29:17;24.90;99.90
41944;DHT22;27636;52.610;13.244;2023-07-29T13:34:20;26.10;99.90
41944;DHT22;27636;52.610;13.244;2023-07-29T13:39:24;25.90;99.90
41944;DHT22;27636;52.610;13.244;2023-07-29T13:44:29;25.80;99.90
41944;DHT22;27636;52.610;13.244;2023-07-29T13:49:33;26.10;99.90
41944;DHT22;27636;52.610;13.244;2023-07-29T13:54:36;26.70;99.90
41944;DHT22;27636;52.610;13.244;2023-07-29T13:59:43;27.30;99.90
41944;DHT22;27636;52.610;13.244;2023-07-29T14:04:47;27.90;99.90
41944;DHT22;27636;52.610;13.244;2023-07-29T14:09:50;28.10;99.90
41944;DHT22;27636;52.610;13.244;2023-07-29T14:14:56;27.50;99.90
41944;DHT22;27636;52.610;13.244;2023-07-29T14:19:59;26.70;99.90
41944;DHT22;27636;52.610;13.244;2023-07-29T14:25:03;26.90;99.90
41944;DHT22;27636;52.610;13.244;2023-07-29T14:30:09;27.30;99.90
41944;DHT22;27636;52.610;13.244;2023-07-29T14:35:13;27.40;99.90
41944;DHT22;27636;52.610;13.244;2023-07-29T14:40:17;26.70;99.90
41944;DHT22;27636;52.610;13.244;2023-07-29T14:45:22;26.20;99.90
41944;DHT22;27636;52.610;13.244;2023-07-29T14:50:26;25.90;99.90
41944;DHT22;27636;52.610;13.244;2023-07-29T14:55:30;26.10;99.90
41944;DHT22;27636;52.610;13.244;2023-07-29T15:00:35;26.90;99.90
41944;DHT22;27636;52.610;13.244;2023-07-29T15:05:38;27.30;99.90
41944;DHT22;27636;52.610;13.244;2023-07-29T15:10:45;26.20;99.90
41944;DHT22;27636;52.610;13.244;2023-07-29T15:15:50;24.90;99.90
41944;DHT22;27636;52.610;13.244;2023-07-29T15:20:54;24.10;99.90
41944;DHT22;27636;52.610;13.244;2023-07-29T15:25:57;23.40;99.90
41944;DHT22;27636;52.610;13.244;2023-07-29T15:31:02;23.00;99.90
41944;DHT22;27636;52.610;13.244;2023-07-29T15:36:06;21.90;99.90
41944;DHT22;27636;52.610;13.244;2023-07-29T15:41:10;20.90;99.90
41944;DHT22;27636;52.610;13.244;2023-07-29T15:46:15;20.10;99.90
41944;DHT22;27636;52.610;13.244;2023-07-29T15:51:19;19.60;99.90
41944;DHT22;27636;52.610;13.244;2023-07-29T15:56:22;19.70;99.90
41944;DHT22;27636;52.610;13.244;2023-07-29T16:01:27;20.10;99.90
41944;DHT22;27636;52.610;13.244;2023-07-29T16:06:31;20.70;99.90
41944;DHT22;27636;52.610;13.244;2023-07-29T16:11:35;22.00;99.90
41944;DHT22;27636;52.610;13.244;2023-07-29T16:16:40;23.60;99.90
41944;DHT22;27636;52.610;13.244;2023-07-29T16:21:43;24.40;99.90
41944;DHT22;27636;52.610;13.244;2023-07-29T16:26:47;23.90;99.90
41944;DHT22;27636;52.610;13.244;2023-07-29T16:31:52;23.80;99.90
41944;DHT22;27636;52.610;13.244;2023-07-29T16:36:56;23.90;99.90
41944;DHT22;27636;52.610;13.244;2023-07-29T16:41:59;23.40;99.90
41944;DHT22;27636;52.610;13.244;2023-07-29T16:47:09;22.90;99.90
41944;DHT22;27636;52.610;13.244;2023-07-29T16:52:13;22.60;99.90
41944;DHT22;27636;52.610;13.244;2023-07-29T16:57:17;22.50;99.90
41944;DHT22;27636;52.610;13.244;2023-07-29T17:02:22;22.30;99.90
41944;DHT22;27636;52.610;13.244;2023-07-29T17:07:25;22.40;99.90
41944;DHT22;27636;52.610;13.244;2023-07-29T17:12:29;22.60;99.90
41944;DHT22;27636;52.610;13.244;2023-07-29T17:17:34;23.10;99.90
41944;DHT22;27636;52.610;13.244;2023-07-29T17:22:38;23.00;99.90
41944;DHT22;27636;52.610;13.244;2023-07-29T17:27:42;23.70;99.90
41944;DHT22;27636;52.610;13.244;2023-07-29T17:32:47;23.60;99.90
41944;DHT22;27636;52.610;13.244;2023-07-29T17:37:51;23.50;99.90
41944;DHT22;27636;52.610;13.244;2023-07-29T17:42:55;23.10;99.90
41944;DHT22;27636;52.610;13.244;2023-07-29T17:48:00;23.10;99.90
41944;DHT22;27636;52.610;13.244;2023-07-29T17:53:04;22.50;99.90
41944;DHT22;27636;52.610;13.244;2023-07-29T17:58:09;22.00;99.90
41944;DHT22;27636;52.610;13.244;2023-07-29T18:03:13;21.60;99.90
41944;DHT22;27636;52.610;13.244;2023-07-29T18:08:17;21.30;99.90
41944;DHT22;27636;52.610;13.244;2023-07-29T18:13:21;21.10;99.90
41944;DHT22;27636;52.610;13.244;2023-07-29T18:18:26;20.70;99.90
41944;DHT22;27636;52.610;13.244;2023-07-29T18:23:31;20.60;99.90
41944;DHT22;27636;52.610;13.244;2023-07-29T18:28:34;20.30;99.90
41944;DHT22;27636;52.610;13.244;2023-07-29T18:33:39;20.10;99.90
41944;DHT22;27636;52.610;13.244;2023-07-29T18:38:42;19.80;99.90
41944;DHT22;27636;52.610;13.244;2023-07-29T18:43:47;19.50;99.90
41944;DHT22;27636;52.610;13.244;2023-07-29T18:48:52;19.40;99.90
41944;DHT22;27636;52.610;13.244;2023-07-29T18:53:55;19.30;99.90
41944;DHT22;27636;52.610;13.244;2023-07-29T18:58:59;19.40;99.90
41944;DHT22;27636;52.610;13.244;2023-07-29T19:04:04;19.20;99.90
41944;DHT22;27636;52.610;13.244;2023-07-29T19:09:07;19.00;99.90
41944;DHT22;27636;52.610;13.244;2023-07-29T19:14:11;18.90;99.90
41944;DHT22;27636;52.610;13.244;2023-07-29T19:19:16;18.70;99.90
41944;DHT22;27636;52.610;13.244;2023-07-29T19:24:20;18.60;99.90
41944;DHT22;27636;52.610;13.244;2023-07-29T19:29:23;18.50;99.90
41944;DHT22;27636;52.610;13.244;2023-07-29T19:34:28;18.40;99.90
41944;DHT22;27636;52.610;13.244;2023-07-29T19:39:32;18.30;99.90
41944;DHT22;27636;52.610;13.244;2023-07-29T19:44:36;18.00;99.90
41944;DHT22;27636;52.610;13.244;2023-07-29T19:49:40;17.90;99.90
41944;DHT22;27636;52.610;13.244;2023-07-29T19:54:44;17.80;99.90
41944;DHT22;27636;52.610;13.244;2023-07-29T19:59:47;17.60;99.90
41944;DHT22;27636;52.610;13.244;2023-07-29T20:04:53;17.60;99.90
41944;DHT22;27636;52.610;13.244;2023-07-29T20:09:59;17.60;99.90
41944;DHT22;27636;52.610;13.244;2023-07-29T20:15:04;17.40;99.90
41944;DHT22;27636;52.610;13.244;2023-07-29T20:20:10;17.30;99.90
41944;DHT22;27636;52.610;13.244;2023-07-29T20:25:15;17.30;99.90
41944;DHT22;27636;52.610;13.244;2023-07-29T20:30:19;17.30;99.90
41944;DHT22;27636;52.610;13.244;2023-07-29T20:35:23;17.40;99.90
41944;DHT22;27636;52.610;13.244;2023-07-29T20:40:27;17.50;99.90
41944;DHT22;27636;52.610;13.244;2023-07-29T20:45:30;17.50;99.90
41944;DHT22;27636;52.610;13.244;2023-07-29T20:50:38;17.40;99.90
41944;DHT22;27636;52.610;13.244;2023-07-29T20:55:41;17.40;99.90
41944;DHT22;27636;52.610;13.244;2023-07-29T21:00:45;17.40;99.90
41944;DHT22;27636;52.610;13.244;2023-07-29T21:05:50;17.30;99.90
41944;DHT22;27636;52.610;13.244;2023-07-29T21:10:54;17.20;99.90
41944;DHT22;27636;52.610;13.244;2023-07-29T21:15:58;17.20;99.90
41944;DHT22;27636;52.610;13.244;2023-07-29T21:21:03;17.30;99.90
41944;DHT22;27636;52.610;13.244;2023-07-29T21:26:06;17.40;99.90
41944;DHT22;27636;52.610;13.244;2023-07-29T21:31:10;17.50;99.90
41944;DHT22;27636;52.610;13.244;2023-07-29T21:36:15;17.60;99.90
41944;DHT22;27636;52.610;13.244;2023-07-29T21:41:18;17.90;99.90
41944;DHT22;27636;52.610;13.244;2023-07-29T21:46:22;18.10;99.90
41944;DHT22;27636;52.610;13.244;2023-07-29T21:51:27;18.10;99.90
41944;DHT22;27636;52.610;13.244;2023-07-29T21:56:30;18.10;99.90
41944;DHT22;27636;52.610;13.244;2023-07-29T22:01:34;18.30;99.90
41944;DHT22;27636;52.610;13.244;2023-07-29T22:06:40;18.20;99.90
41944;DHT22;27636;52.610;13.244;2023-07-29T22:11:44;18.20;99.90
41944;DHT22;27636;52.610;13.244;2023-07-29T22:16:48;18.20;99.90
41944;DHT22;27636;52.610;13.244;2023-07-29T22:21:53;18.10;99.90
41944;DHT22;27636;52.610;13.244;2023-07-29T22:26:57;18.20;99.90
41944;DHT22;27636;52.610;13.244;2023-07-29T22:32:02;18.10;99.90
41944;DHT22;27636;52.610;13.244;2023-07-29T22:37:08;18.00;99.90
41944;DHT22;27636;52.610;13.244;2023-07-29T22:42:12;18.00;99.90
41944;DHT22;27636;52.610;13.244;2023-07-29T22:47:15;17.90;99.90
41944;DHT22;27636;52.610;13.244;2023-07-29T22:52:20;17.80;99.90
41944;DHT22;27636;52.610;13.244;2023-07-29T22:57:24;17.60;99.90
41944;DHT22;27636;52.610;13.244;2023-07-29T23:02:27;17.40;99.90
41944;DHT22;27636;52.610;13.244;2023-07-29T23:07:32;17.20;99.90
41944;DHT22;27636;52.610;13.244;2023-07-29T23:12:36;17.00;99.90
41944;DHT22;27636;52.610;13.244;2023-07-29T23:17:41;16.90;99.90
41944;DHT22;27636;52.610;13.244;2023-07-29T23:22:46;16.80;99.90
41944;DHT22;27636;52.610;13.244;2023-07-29T23:27:50;16.70;99.90
41944;DHT22;27636;52.610;13.244;2023-07-29T23:32:54;16.60;99.90
41944;DHT22;27636;52.610;13.244;2023-07-29T23:37:59;16.50;99.90
41944;DHT22;27636;52.610;13.244;2023-07-29T23:43:02;16.40;99.90
41944;DHT22;27636;52.610;13.244;2023-07-29T23:48:06;16.30;99.90
41944;DHT22;27636;52.610;13.244;2023-07-29T23:53:11;16.20;99.90
41944;DHT22;27636;52.610;13.244;2023-07-29T23:58:15;16.20;99.90
